Time;durP1;ratioP1;P1;durP2;ratioP2;P2;SDS_P1;SDS_P2;PMS_P1;PMS_P2;Temp;Humidity;BMP_temperature;BMP_pressure;BME280_temperature;BME280_humidity;BME280_pressure;Samples;Min_cycle;Max_cycle;Signal;HPM_P1;HPM_P2
2023/03/30 00:01:10;;;;;;;7.28;1.40;;;;;;;;;;6223078;23;20477;-48
2023/03/30 00:03:39;;;;;;;10.38;1.67;;;;;;;;;;6217461;23;20027;-49
2023/03/30 00:06:07;;;;;;;11.20;1.77;;;;;;;;;;6221176;23;20058;-48
2023/03/30 00:08:35;;;;;;;10.68;2.20;;;;;;;;;;6219438;23;20026;-51
2023/03/30 00:11:04;;;;;;;14.00;1.50;;;;;;;;;;6219319;23;20020;-51
2023/03/30 00:13:33;;;;;;;11.50;1.55;;;;;;;;;;6212991;22;20427;-48
2023/03/30 00:16:01;;;;;;;13.25;3.03;;;;;;;;;;6226467;23;20023;-50
2023/03/30 00:18:30;;;;;;;10.82;1.00;;;;;;;;;;6216076;23;20020;-48
2023/03/30 00:20:58;;;;;;;11.57;1.27;;;;;;;;;;6223190;23;20099;-52
2023/03/30 00:23:26;;;;;;;8.30;1.60;;;;;;;;;;6218261;23;20044;-50
2023/03/30 00:25:53;;;;;;;4.88;0.68;;;;;;;;;;6224047;23;20336;-49
2023/03/30 00:28:21;;;;;;;10.98;0.93;;;;;;;;;;6220088;22;20490;-51
2023/03/30 00:30:49;;;;;;;11.48;1.85;;;;;;;;;;6219803;23;20012;-45
2023/03/30 00:33:17;;;;;;;10.90;1.50;;;;;;;;;;6204011;23;20063;-48
2023/03/30 00:35:53;;;;;;;17.10;2.00;;;;;;;;;;6221930;23;20028;-47
2023/03/30 00:38:21;;;;;;;12.95;1.60;;;;;;;;;;6216677;23;20536;-50
2023/03/30 00:40:51;;;;;;;6.97;0.90;;;;;;;;;;6224387;23;20065;-51
2023/03/30 00:43:19;;;;;;;11.75;1.50;;;;;;;;;;6217262;23;20093;-50
2023/03/30 00:45:46;;;;;;;7.63;1.02;;;;;;;;;;6224302;23;20047;-47
2023/03/30 00:48:16;;;;;;;10.20;1.13;;;;;;;;;;6223159;23;20017;-46
2023/03/30 00:50:45;;;;;;;10.57;1.15;;;;;;;;;;6214755;23;20520;-45
2023/03/30 00:53:16;;;;;;;9.68;1.77;;;;;;;;;;6220947;23;20333;-48
2023/03/30 00:55:46;;;;;;;10.30;1.02;;;;;;;;;;6215255;22;20016;-49
2023/03/30 00:58:15;;;;;;;11.95;1.70;;;;;;;;;;6227321;23;20024;-48
2023/03/30 01:00:45;;;;;;;13.43;1.47;;;;;;;;;;6215497;23;20059;-45
2023/03/30 01:03:20;;;;;;;7.60;0.65;;;;;;;;;;6225205;23;20016;-49
2023/03/30 01:05:49;;;;;;;5.38;0.80;;;;;;;;;;6220889;23;20016;-48
2023/03/30 01:08:19;;;;;;;8.13;0.63;;;;;;;;;;6218125;23;20016;-47
2023/03/30 01:10:47;;;;;;;7.15;0.45;;;;;;;;;;6223403;23;20055;-50
2023/03/30 01:13:15;;;;;;;7.30;0.97;;;;;;;;;;6211872;23;20715;-49
2023/03/30 01:15:52;;;;;;;5.35;0.68;;;;;;;;;;6221195;23;20094;-46
2023/03/30 01:18:29;;;;;;;4.60;0.70;;;;;;;;;;6213800;23;20547;-46
2023/03/30 01:21:16;;;;;;;9.57;0.90;;;;;;;;;;6212731;23;20065;-49
2023/03/30 01:23:57;;;;;;;7.25;0.50;;;;;;;;;;6223880;23;20065;-47
2023/03/30 01:26:42;;;;;;;8.90;0.97;;;;;;;;;;6222329;23;20036;-46
2023/03/30 01:29:15;;;;;;;5.95;0.68;;;;;;;;;;6213668;23;20016;-48
2023/03/30 01:31:51;;;;;;;5.75;0.60;;;;;;;;;;6225174;23;20528;-48
2023/03/30 01:34:28;;;;;;;7.20;0.75;;;;;;;;;;6215423;23;20016;-47
2023/03/30 01:37:14;;;;;;;3.50;0.35;;;;;;;;;;6220213;23;20095;-46
2023/03/30 01:39:48;;;;;;;10.37;0.87;;;;;;;;;;6223704;22;20024;-48
2023/03/30 01:42:19;;;;;;;9.70;1.27;;;;;;;;;;6224010;23;20052;-49
2023/03/30 01:44:51;;;;;;;10.27;0.63;;;;;;;;;;6214799;23;20402;-48
2023/03/30 01:47:21;;;;;;;5.65;0.88;;;;;;;;;;6212919;23;20059;-48
2023/03/30 01:49:54;;;;;;;7.00;0.75;;;;;;;;;;6222003;23;20020;-49
2023/03/30 01:52:27;;;;;;;5.70;0.70;;;;;;;;;;6213645;23;20480;-48
2023/03/30 01:54:58;;;;;;;6.13;0.60;;;;;;;;;;6224731;22;20012;-49
2023/03/30 01:57:30;;;;;;;12.88;0.80;;;;;;;;;;6214684;23;20016;-46
2023/03/30 02:00:00;;;;;;;9.80;1.10;;;;;;;;;;6225908;23;20023;-48
2023/03/30 02:02:31;;;;;;;9.10;0.70;;;;;;;;;;6206788;22;20378;-47
2023/03/30 02:05:00;;;;;;;6.80;0.40;;;;;;;;;;6227090;23;20027;-49
2023/03/30 02:07:29;;;;;;;13.00;1.45;;;;;;;;;;6207142;23;20016;-49
2023/03/30 02:10:01;;;;;;;7.82;0.50;;;;;;;;;;6223075;22;20091;-46
2023/03/30 02:12:29;;;;;;;4.88;0.50;;;;;;;;;;6163247;23;20024;-49
2023/03/30 02:14:58;;;;;;;8.80;0.82;;;;;;;;;;6157768;23;20096;-51
2023/03/30 02:17:27;;;;;;;9.13;1.03;;;;;;;;;;6159764;23;20105;-49
2023/03/30 02:19:56;;;;;;;4.60;0.50;;;;;;;;;;6156353;23;20513;-48
2023/03/30 02:22:25;;;;;;;5.70;0.77;;;;;;;;;;6160128;23;20444;-47
2023/03/30 02:24:53;;;;;;;7.47;0.80;;;;;;;;;;6155879;23;20052;-49
2023/03/30 02:27:23;;;;;;;2.83;0.30;;;;;;;;;;6152961;23;20068;-49
2023/03/30 02:29:51;;;;;;;12.37;1.03;;;;;;;;;;6156337;23;20044;-48
2023/03/30 02:32:21;;;;;;;6.32;0.60;;;;;;;;;;6159612;23;20017;-47
2023/03/30 02:34:56;;;;;;;9.68;0.68;;;;;;;;;;6136369;23;20403;-52
2023/03/30 02:37:31;;;;;;;8.00;0.90;;;;;;;;;;6161175;23;20017;-46
2023/03/30 02:40:07;;;;;;;10.82;0.85;;;;;;;;;;6162646;23;20063;-49
2023/03/30 02:42:50;;;;;;;11.00;1.27;;;;;;;;;;6161579;23;20377;-46
2023/03/30 02:45:23;;;;;;;8.80;1.00;;;;;;;;;;6150073;23;20376;-47
2023/03/30 02:47:56;;;;;;;6.10;1.00;;;;;;;;;;6162323;23;20044;-48
2023/03/30 02:50:26;;;;;;;8.38;0.70;;;;;;;;;;6159815;23;20067;-46
2023/03/30 02:52:56;;;;;;;8.55;1.00;;;;;;;;;;6157827;23;20068;-49
2023/03/30 02:55:25;;;;;;;6.50;1.00;;;;;;;;;;6154285;23;20036;-50
2023/03/30 02:57:56;;;;;;;7.57;0.73;;;;;;;;;;6158385;23;20182;-48
2023/03/30 03:00:29;;;;;;;9.93;0.57;;;;;;;;;;6154472;23;20101;-49
2023/03/30 03:03:00;;;;;;;11.80;1.00;;;;;;;;;;6156725;23;20444;-48
2023/03/30 03:05:28;;;;;;;9.88;1.15;;;;;;;;;;6158541;23;20063;-48
2023/03/30 03:07:56;;;;;;;4.60;0.50;;;;;;;;;;6161755;23;20127;-47
2023/03/30 03:10:24;;;;;;;7.20;0.60;;;;;;;;;;6171140;23;20035;-47
2023/03/30 03:12:52;;;;;;;6.68;0.65;;;;;;;;;;6210762;23;20104;-49
2023/03/30 03:15:19;;;;;;;10.40;1.30;;;;;;;;;;6223364;23;20237;-46
2023/03/30 03:17:49;;;;;;;4.80;0.50;;;;;;;;;;6210402;23;20012;-49
2023/03/30 03:20:16;;;;;;;7.20;0.60;;;;;;;;;;6222693;23;20020;-49
2023/03/30 03:22:44;;;;;;;7.70;0.60;;;;;;;;;;6217321;23;20016;-49
2023/03/30 03:25:11;;;;;;;5.32;0.68;;;;;;;;;;6219467;23;20403;-48
2023/03/30 03:27:39;;;;;;;7.43;0.75;;;;;;;;;;6219371;23;20051;-47
2023/03/30 03:30:07;;;;;;;9.77;1.23;;;;;;;;;;6219428;23;20040;-46
2023/03/30 03:32:35;;;;;;;6.53;0.50;;;;;;;;;;6223132;23;20683;-46
2023/03/30 03:35:04;;;;;;;6.70;1.02;;;;;;;;;;6207470;23;20093;-46
2023/03/30 03:37:32;;;;;;;5.63;0.40;;;;;;;;;;6223507;23;20020;-46
2023/03/30 03:40:00;;;;;;;9.43;0.98;;;;;;;;;;6209114;23;20055;-48
2023/03/30 03:42:27;;;;;;;4.43;0.45;;;;;;;;;;6217699;23;20055;-47
2023/03/30 03:44:55;;;;;;;8.30;0.80;;;;;;;;;;6214411;23;20512;-51
2023/03/30 03:47:23;;;;;;;10.45;0.88;;;;;;;;;;6217525;23;20016;-48
2023/03/30 03:49:50;;;;;;;5.40;0.85;;;;;;;;;;6221278;23;20438;-47
2023/03/30 03:52:19;;;;;;;9.07;0.73;;;;;;;;;;6219836;23;20012;-47
2023/03/30 03:54:47;;;;;;;9.60;1.00;;;;;;;;;;6213624;23;20107;-48
2023/03/30 03:57:15;;;;;;;7.23;0.90;;;;;;;;;;6219759;23;20024;-48
2023/03/30 03:59:42;;;;;;;5.43;0.98;;;;;;;;;;6211504;23;20016;-48
2023/03/30 04:02:10;;;;;;;6.68;0.77;;;;;;;;;;6219342;23;20102;-48
2023/03/30 04:04:38;;;;;;;9.75;0.80;;;;;;;;;;6217006;23;20016;-50
2023/03/30 04:07:05;;;;;;;4.13;0.47;;;;;;;;;;6220780;23;20393;-50
2023/03/30 04:09:35;;;;;;;7.70;1.63;;;;;;;;;;6217758;23;20465;-47
2023/03/30 04:12:03;;;;;;;8.82;0.73;;;;;;;;;;6220850;23;20522;-48
2023/03/30 04:14:30;;;;;;;9.57;0.63;;;;;;;;;;6216037;23;20016;-46
2023/03/30 04:16:58;;;;;;;9.27;0.80;;;;;;;;;;6215490;23;20062;-46
2023/03/30 04:19:26;;;;;;;11.48;1.00;;;;;;;;;;6208476;23;20102;-50
2023/03/30 04:21:54;;;;;;;9.47;1.00;;;;;;;;;;6223245;23;20278;-47
2023/03/30 04:24:22;;;;;;;6.72;0.80;;;;;;;;;;6209997;23;20017;-52
2023/03/30 04:26:51;;;;;;;8.30;1.23;;;;;;;;;;6221943;22;20020;-46
2023/03/30 04:29:19;;;;;;;10.10;0.98;;;;;;;;;;6215557;23;20332;-48
2023/03/30 04:31:49;;;;;;;9.70;0.77;;;;;;;;;;6216509;23;20008;-49
2023/03/30 04:34:20;;;;;;;9.60;1.23;;;;;;;;;;6209762;23;20537;-49
2023/03/30 04:36:48;;;;;;;5.10;0.50;;;;;;;;;;6221877;22;20012;-48
2023/03/30 04:39:16;;;;;;;11.30;1.35;;;;;;;;;;6218398;23;20012;-48
2023/03/30 04:41:44;;;;;;;13.52;1.33;;;;;;;;;;6219959;23;20031;-49
2023/03/30 04:44:14;;;;;;;7.97;1.00;;;;;;;;;;6216175;23;20297;-46
2023/03/30 04:46:41;;;;;;;8.77;0.63;;;;;;;;;;6224524;23;20032;-45
2023/03/30 04:49:09;;;;;;;12.82;0.95;;;;;;;;;;6213766;23;20090;-48
2023/03/30 04:51:38;;;;;;;7.65;0.70;;;;;;;;;;6215514;23;20043;-50
2023/03/30 04:54:06;;;;;;;11.82;1.02;;;;;;;;;;6218855;23;20078;-51
2023/03/30 04:56:33;;;;;;;8.80;0.85;;;;;;;;;;6214064;23;20082;-46
2023/03/30 04:59:01;;;;;;;10.43;1.10;;;;;;;;;;6225153;23;20048;-46
2023/03/30 05:01:30;;;;;;;10.38;0.88;;;;;;;;;;6213098;23;20091;-46
2023/03/30 05:03:58;;;;;;;9.82;1.02;;;;;;;;;;6224396;23;20016;-46
2023/03/30 05:06:26;;;;;;;8.77;0.52;;;;;;;;;;6214013;23;20024;-48
2023/03/30 05:08:54;;;;;;;10.68;0.93;;;;;;;;;;6222083;23;20016;-46
2023/03/30 05:11:22;;;;;;;7.77;0.80;;;;;;;;;;6218363;23;20054;-46
2023/03/30 05:13:50;;;;;;;12.75;1.00;;;;;;;;;;6220975;23;20761;-48
2023/03/30 05:16:18;;;;;;;7.03;0.68;;;;;;;;;;6220180;23;20012;-46
2023/03/30 05:18:47;;;;;;;8.82;0.93;;;;;;;;;;6218416;23;20450;-49
2023/03/30 05:21:18;;;;;;;8.20;1.23;;;;;;;;;;6221702;23;20052;-46
2023/03/30 05:23:45;;;;;;;9.77;0.77;;;;;;;;;;6213228;23;20074;-47
2023/03/30 05:26:13;;;;;;;11.15;1.20;;;;;;;;;;6218147;23;20035;-46
2023/03/30 05:28:41;;;;;;;9.52;1.58;;;;;;;;;;6221378;23;20026;-47
2023/03/30 05:31:09;;;;;;;6.47;0.63;;;;;;;;;;6220277;23;20066;-48
2023/03/30 05:33:37;;;;;;;8.65;0.65;;;;;;;;;;6217361;23;20501;-47
2023/03/30 05:36:07;;;;;;;12.53;1.07;;;;;;;;;;6220172;23;20043;-46
2023/03/30 05:38:35;;;;;;;7.10;1.00;;;;;;;;;;6218018;22;20016;-47
2023/03/30 05:41:03;;;;;;;10.32;0.82;;;;;;;;;;6220545;23;20031;-46
2023/03/30 05:43:31;;;;;;;9.00;0.60;;;;;;;;;;6226149;23;20017;-47
2023/03/30 05:45:59;;;;;;;10.82;1.13;;;;;;;;;;6209077;23;20565;-46
2023/03/30 05:48:27;;;;;;;12.90;1.53;;;;;;;;;;6224350;23;20012;-46
2023/03/30 05:50:55;;;;;;;8.25;1.25;;;;;;;;;;6218618;23;20032;-47
2023/03/30 05:53:24;;;;;;;11.95;1.13;;;;;;;;;;6219652;23;20095;-46
2023/03/30 05:55:52;;;;;;;11.07;0.60;;;;;;;;;;6227443;23;20020;-45
2023/03/30 05:58:20;;;;;;;8.27;0.77;;;;;;;;;;6217153;23;20046;-46
2023/03/30 06:00:48;;;;;;;13.20;1.70;;;;;;;;;;6222011;23;20046;-49
2023/03/30 06:03:16;;;;;;;8.20;0.98;;;;;;;;;;6218694;23;20027;-47
2023/03/30 06:05:44;;;;;;;11.80;1.08;;;;;;;;;;6219366;23;20346;-46
2023/03/30 06:08:12;;;;;;;11.35;1.10;;;;;;;;;;6218298;23;20043;-48
2023/03/30 06:10:41;;;;;;;15.63;1.85;;;;;;;;;;6221479;23;20043;-46
2023/03/30 06:13:09;;;;;;;11.40;1.30;;;;;;;;;;6218809;23;20444;-49
2023/03/30 06:15:36;;;;;;;12.10;1.08;;;;;;;;;;6214748;23;20020;-47
2023/03/30 06:18:04;;;;;;;18.58;1.73;;;;;;;;;;6222168;23;20088;-48
2023/03/30 06:20:32;;;;;;;9.35;1.40;;;;;;;;;;6215778;23;20023;-46
2023/03/30 06:23:00;;;;;;;19.27;1.75;;;;;;;;;;6221029;23;20016;-47
2023/03/30 06:25:28;;;;;;;7.27;1.00;;;;;;;;;;6214646;23;20078;-47
2023/03/30 06:27:57;;;;;;;12.80;1.23;;;;;;;;;;6220432;23;20016;-48
2023/03/30 06:30:25;;;;;;;8.40;0.77;;;;;;;;;;6215416;23;20087;-48
2023/03/30 06:32:53;;;;;;;10.93;1.40;;;;;;;;;;6217620;23;20549;-47
2023/03/30 06:35:21;;;;;;;12.48;1.48;;;;;;;;;;6219430;23;20020;-46
2023/03/30 06:37:50;;;;;;;7.57;0.90;;;;;;;;;;6216406;22;20016;-48
2023/03/30 06:40:19;;;;;;;7.93;1.00;;;;;;;;;;6222775;22;20021;-49
2023/03/30 06:42:46;;;;;;;9.75;1.45;;;;;;;;;;6223106;23;20019;-48
2023/03/30 06:45:16;;;;;;;7.88;0.95;;;;;;;;;;6221898;23;20016;-48
2023/03/30 06:47:44;;;;;;;9.88;1.35;;;;;;;;;;6215551;23;20043;-49
2023/03/30 06:50:13;;;;;;;9.13;0.73;;;;;;;;;;6216762;23;20070;-48
2023/03/30 06:52:41;;;;;;;6.85;0.90;;;;;;;;;;6219680;23;20259;-46
2023/03/30 06:55:09;;;;;;;9.55;1.23;;;;;;;;;;6222325;23;20412;-51
2023/03/30 06:57:37;;;;;;;16.00;1.33;;;;;;;;;;6214594;23;20016;-47
2023/03/30 07:00:11;;;;;;;8.85;0.98;;;;;;;;;;6217404;23;20012;-47
2023/03/30 07:02:41;;;;;;;10.40;1.13;;;;;;;;;;6217381;23;20024;-47
2023/03/30 07:05:09;;;;;;;10.15;1.65;;;;;;;;;;6216721;23;20019;-48
2023/03/30 07:07:38;;;;;;;13.85;2.10;;;;;;;;;;6224114;23;20159;-46
2023/03/30 07:10:09;;;;;;;13.07;1.30;;;;;;;;;;6223002;23;20012;-47
2023/03/30 07:12:37;;;;;;;9.60;1.35;;;;;;;;;;6217835;23;20016;-49
2023/03/30 07:15:06;;;;;;;7.70;1.60;;;;;;;;;;6221851;23;20423;-49
2023/03/30 07:17:34;;;;;;;18.10;1.80;;;;;;;;;;6217744;23;20075;-48
2023/03/30 07:20:05;;;;;;;6.38;1.42;;;;;;;;;;6214515;23;20491;-48
2023/03/30 07:22:32;;;;;;;16.77;1.42;;;;;;;;;;6218713;23;20020;-48
2023/03/30 07:25:00;;;;;;;9.27;1.00;;;;;;;;;;6219423;23;20035;-47
2023/03/30 07:27:28;;;;;;;13.77;1.50;;;;;;;;;;6211647;23;20030;-47
2023/03/30 07:29:55;;;;;;;12.57;1.70;;;;;;;;;;6222002;23;20022;-50
2023/03/30 07:32:31;;;;;;;7.40;1.15;;;;;;;;;;6216830;23;20336;-45
2023/03/30 07:34:58;;;;;;;8.32;1.40;;;;;;;;;;6216998;23;20012;-47
2023/03/30 07:37:28;;;;;;;12.95;1.42;;;;;;;;;;6218835;23;20020;-47
2023/03/30 07:39:56;;;;;;;6.83;0.70;;;;;;;;;;6208764;23;20066;-49
2023/03/30 07:42:23;;;;;;;8.82;0.90;;;;;;;;;;6213365;23;20053;-48
2023/03/30 07:44:51;;;;;;;9.23;1.42;;;;;;;;;;6211168;23;20513;-48
2023/03/30 07:47:19;;;;;;;8.70;1.45;;;;;;;;;;6220761;22;20022;-48
2023/03/30 07:49:47;;;;;;;12.75;1.10;;;;;;;;;;6213847;23;20044;-47
2023/03/30 07:52:17;;;;;;;12.60;1.17;;;;;;;;;;6223043;23;20016;-48
2023/03/30 07:54:46;;;;;;;6.97;0.82;;;;;;;;;;6219676;23;20012;-46
2023/03/30 07:57:15;;;;;;;9.55;1.23;;;;;;;;;;6221094;23;20107;-51
2023/03/30 07:59:42;;;;;;;14.35;2.58;;;;;;;;;;6219194;23;20350;-47
2023/03/30 08:02:12;;;;;;;12.93;1.30;;;;;;;;;;6216860;23;20020;-47
2023/03/30 08:04:40;;;;;;;11.17;1.00;;;;;;;;;;6223799;23;20012;-49
2023/03/30 08:07:08;;;;;;;14.48;1.98;;;;;;;;;;6212617;23;20070;-47
2023/03/30 08:09:36;;;;;;;11.13;1.75;;;;;;;;;;6218066;23;20444;-48
2023/03/30 08:12:05;;;;;;;11.02;1.15;;;;;;;;;;6216663;23;20095;-51
2023/03/30 08:14:33;;;;;;;9.88;1.40;;;;;;;;;;6218572;23;20050;-50
2023/03/30 08:17:01;;;;;;;10.53;1.80;;;;;;;;;;6218860;23;20051;-49
2023/03/30 08:19:28;;;;;;;10.68;1.55;;;;;;;;;;6222654;23;20016;-49
2023/03/30 08:21:56;;;;;;;15.50;1.50;;;;;;;;;;6213725;23;20388;-50
2023/03/30 08:24:24;;;;;;;6.90;1.15;;;;;;;;;;6215522;23;20092;-50
2023/03/30 08:26:51;;;;;;;18.05;2.08;;;;;;;;;;6211921;23;20012;-49
2023/03/30 08:29:22;;;;;;;11.10;1.87;;;;;;;;;;6222536;23;20047;-52
2023/03/30 08:31:50;;;;;;;13.48;1.70;;;;;;;;;;6216624;23;20026;-48
2023/03/30 08:34:18;;;;;;;12.02;1.45;;;;;;;;;;6215004;23;20027;-47
2023/03/30 08:36:46;;;;;;;12.65;1.38;;;;;;;;;;6214048;23;20046;-49
2023/03/30 08:39:15;;;;;;;12.48;1.67;;;;;;;;;;6211876;23;20047;-47
2023/03/30 08:41:58;;;;;;;11.63;1.10;;;;;;;;;;6196769;23;20082;-50
2023/03/30 08:44:33;;;;;;;11.38;0.88;;;;;;;;;;6210270;23;20095;-50
2023/03/30 08:47:01;;;;;;;15.18;1.70;;;;;;;;;;6218430;23;20043;-47
2023/03/30 08:49:31;;;;;;;10.98;1.35;;;;;;;;;;6214264;23;20024;-51
2023/03/30 08:52:00;;;;;;;13.07;1.38;;;;;;;;;;6222526;23;20016;-48
2023/03/30 08:54:30;;;;;;;14.07;1.50;;;;;;;;;;6216830;23;20008;-51
2023/03/30 08:57:00;;;;;;;10.35;1.23;;;;;;;;;;6223453;23;20514;-47
2023/03/30 08:59:33;;;;;;;8.30;1.10;;;;;;;;;;6217600;23;20074;-48
2023/03/30 09:02:09;;;;;;;9.07;1.35;;;;;;;;;;6221823;23;20090;-48
2023/03/30 09:04:45;;;;;;;11.13;1.17;;;;;;;;;;6214219;23;20043;-47
2023/03/30 09:07:17;;;;;;;8.67;1.97;;;;;;;;;;6217645;22;20026;-51
2023/03/30 09:09:46;;;;;;;7.30;0.68;;;;;;;;;;6215407;23;20070;-49
2023/03/30 09:12:18;;;;;;;12.18;0.90;;;;;;;;;;6211522;22;20035;-51
2023/03/30 09:14:49;;;;;;;16.55;1.63;;;;;;;;;;6221914;23;20040;-49
2023/03/30 09:17:20;;;;;;;10.07;1.20;;;;;;;;;;6220470;23;20016;-49
2023/03/30 09:19:50;;;;;;;8.67;1.03;;;;;;;;;;6215450;22;20040;-49
2023/03/30 09:22:19;;;;;;;9.98;1.08;;;;;;;;;;6214487;23;20066;-49
2023/03/30 09:24:50;;;;;;;15.77;1.95;;;;;;;;;;6216789;23;20016;-50
2023/03/30 09:27:24;;;;;;;11.52;1.27;;;;;;;;;;6221373;23;20026;-47
2023/03/30 09:29:54;;;;;;;11.25;1.60;;;;;;;;;;6217298;23;20012;-53
2023/03/30 09:32:30;;;;;;;15.27;1.57;;;;;;;;;;6221766;23;20048;-51
2023/03/30 09:34:59;;;;;;;16.73;1.23;;;;;;;;;;6211422;23;20028;-47
2023/03/30 09:37:28;;;;;;;11.00;1.20;;;;;;;;;;6221713;23;20008;-49
2023/03/30 09:39:57;;;;;;;14.68;1.50;;;;;;;;;;6220156;23;20012;-50
2023/03/30 09:42:32;;;;;;;13.70;1.50;;;;;;;;;;6218825;23;20024;-48
2023/03/30 09:45:04;;;;;;;9.27;0.97;;;;;;;;;;6215980;23;20016;-47
2023/03/30 09:47:35;;;;;;;15.00;0.98;;;;;;;;;;6210453;23;20070;-50
2023/03/30 09:50:05;;;;;;;11.02;0.90;;;;;;;;;;6222662;22;20055;-47
2023/03/30 09:52:35;;;;;;;10.65;0.90;;;;;;;;;;6214935;23;20016;-48
2023/03/30 09:55:17;;;;;;;9.10;1.10;;;;;;;;;;6218661;23;20091;-49
2023/03/30 09:57:46;;;;;;;12.93;1.17;;;;;;;;;;6221929;23;20554;-49
2023/03/30 10:00:24;;;;;;;13.48;1.30;;;;;;;;;;6219369;23;20050;-47
2023/03/30 10:02:56;;;;;;;16.25;1.52;;;;;;;;;;6214760;23;20099;-48
2023/03/30 10:05:25;;;;;;;10.90;1.10;;;;;;;;;;6217207;23;20012;-49
2023/03/30 10:07:53;;;;;;;7.10;1.23;;;;;;;;;;6207638;23;20039;-52
2023/03/30 10:10:28;;;;;;;7.97;0.87;;;;;;;;;;6211584;23;20052;-49
2023/03/30 10:13:01;;;;;;;5.53;0.55;;;;;;;;;;6207444;23;20095;-48
2023/03/30 10:15:31;;;;;;;10.65;0.90;;;;;;;;;;6195889;23;20031;-49
2023/03/30 10:18:03;;;;;;;12.32;1.23;;;;;;;;;;6198387;23;20023;-51
2023/03/30 10:20:35;;;;;;;12.73;1.58;;;;;;;;;;6198835;23;20024;-49
2023/03/30 10:23:04;;;;;;;8.50;1.00;;;;;;;;;;6197405;23;20406;-51
2023/03/30 10:25:33;;;;;;;11.27;0.88;;;;;;;;;;6203714;23;20426;-51
2023/03/30 10:28:03;;;;;;;8.25;0.75;;;;;;;;;;6207198;23;20067;-49
2023/03/30 10:30:31;;;;;;;6.00;0.80;;;;;;;;;;6199717;23;20023;-53
2023/03/30 10:33:01;;;;;;;6.28;0.70;;;;;;;;;;6200355;23;20020;-48
2023/03/30 10:35:34;;;;;;;5.63;0.77;;;;;;;;;;6204626;23;20469;-49
2023/03/30 10:38:02;;;;;;;4.22;0.40;;;;;;;;;;6197379;23;20008;-48
2023/03/30 10:40:33;;;;;;;5.13;0.65;;;;;;;;;;6192281;23;20020;-48
2023/03/30 10:43:01;;;;;;;5.63;0.80;;;;;;;;;;6206172;23;20073;-50
2023/03/30 10:45:32;;;;;;;7.30;0.88;;;;;;;;;;6200703;23;20097;-49
2023/03/30 10:48:06;;;;;;;5.33;0.60;;;;;;;;;;6221018;22;20042;-48
2023/03/30 10:50:41;;;;;;;7.78;0.90;;;;;;;;;;6215399;23;20024;-51
2023/03/30 10:53:19;;;;;;;7.07;0.60;;;;;;;;;;6219662;23;20127;-48
2023/03/30 10:55:51;;;;;;;6.85;0.40;;;;;;;;;;6222564;23;20102;-48
2023/03/30 10:58:25;;;;;;;8.73;0.90;;;;;;;;;;6209369;23;20119;-50
2023/03/30 11:00:58;;;;;;;6.90;0.60;;;;;;;;;;6203253;23;20381;-47
2023/03/30 11:03:27;;;;;;;8.93;0.77;;;;;;;;;;6202878;23;20024;-51
2023/03/30 11:06:02;;;;;;;8.10;1.02;;;;;;;;;;6205991;23;20771;-47
2023/03/30 11:08:31;;;;;;;11.07;0.88;;;;;;;;;;6198295;23;20043;-48
2023/03/30 11:11:00;;;;;;;4.38;0.77;;;;;;;;;;6197570;23;20074;-49
2023/03/30 11:13:31;;;;;;;12.23;0.97;;;;;;;;;;6191607;23;20332;-49
2023/03/30 11:16:00;;;;;;;9.85;0.93;;;;;;;;;;6215538;23;20055;-48
2023/03/30 11:18:32;;;;;;;10.20;1.25;;;;;;;;;;6211178;23;20016;-51
2023/03/30 11:21:03;;;;;;;7.78;0.88;;;;;;;;;;6222963;23;20099;-48
2023/03/30 11:23:37;;;;;;;9.63;1.00;;;;;;;;;;6214126;23;20396;-48
2023/03/30 11:26:07;;;;;;;5.67;0.80;;;;;;;;;;6219644;23;20009;-48
2023/03/30 11:28:47;;;;;;;7.63;1.35;;;;;;;;;;6213818;23;20379;-48
2023/03/30 11:31:20;;;;;;;7.10;0.93;;;;;;;;;;6214842;23;20231;-47
2023/03/30 11:33:53;;;;;;;7.93;0.57;;;;;;;;;;6220703;23;20012;-50
2023/03/30 11:36:26;;;;;;;9.63;1.00;;;;;;;;;;6214307;23;20388;-49
2023/03/30 11:38:57;;;;;;;8.37;0.67;;;;;;;;;;6218008;23;20016;-48
2023/03/30 11:41:28;;;;;;;6.57;0.70;;;;;;;;;;6218665;23;20016;-47
2023/03/30 11:43:56;;;;;;;8.25;0.90;;;;;;;;;;6225904;23;20039;-46
2023/03/30 11:46:26;;;;;;;9.20;0.93;;;;;;;;;;6217154;23;20050;-47
2023/03/30 11:49:02;;;;;;;9.27;1.10;;;;;;;;;;6219996;23;20016;-49
2023/03/30 11:51:42;;;;;;;9.33;1.17;;;;;;;;;;6220738;23;20018;-50
2023/03/30 11:54:19;;;;;;;6.85;0.80;;;;;;;;;;6217882;23;20055;-48
2023/03/30 11:56:49;;;;;;;7.78;0.65;;;;;;;;;;6216502;23;20531;-52
2023/03/30 11:59:21;;;;;;;9.38;1.42;;;;;;;;;;6223785;22;20020;-50
2023/03/30 12:01:57;;;;;;;9.57;0.88;;;;;;;;;;6214244;23;20054;-47
2023/03/30 12:04:27;;;;;;;10.13;1.00;;;;;;;;;;6222900;23;20030;-51
2023/03/30 12:06:58;;;;;;;5.20;0.77;;;;;;;;;;6222872;23;20434;-49
2023/03/30 12:09:29;;;;;;;7.68;1.10;;;;;;;;;;6220367;23;20505;-49
2023/03/30 12:12:02;;;;;;;10.18;1.00;;;;;;;;;;6215459;23;20062;-51
2023/03/30 12:14:42;;;;;;;10.27;1.55;;;;;;;;;;6217346;23;20035;-50
2023/03/30 12:17:16;;;;;;;9.47;1.10;;;;;;;;;;6217178;23;20403;-48
2023/03/30 12:19:46;;;;;;;13.25;1.40;;;;;;;;;;6221958;23;20036;-48
2023/03/30 12:22:29;;;;;;;6.13;0.90;;;;;;;;;;6218376;23;20016;-50
2023/03/30 12:25:00;;;;;;;5.55;0.60;;;;;;;;;;6220878;23;20374;-46
2023/03/30 12:27:30;;;;;;;6.20;1.13;;;;;;;;;;6214511;23;20012;-52
2023/03/30 12:30:11;;;;;;;8.17;1.20;;;;;;;;;;6215470;23;20024;-49
2023/03/30 12:32:51;;;;;;;7.57;0.80;;;;;;;;;;6214377;23;20016;-50
2023/03/30 12:35:38;;;;;;;5.63;0.63;;;;;;;;;;6218255;23;20024;-50
2023/03/30 12:38:07;;;;;;;8.07;0.57;;;;;;;;;;6213942;23;20031;-50
2023/03/30 12:40:36;;;;;;;5.15;0.70;;;;;;;;;;6218353;23;20486;-49
2023/03/30 12:43:09;;;;;;;4.83;0.60;;;;;;;;;;6217304;23;20016;-49
2023/03/30 12:45:47;;;;;;;8.88;0.65;;;;;;;;;;6212758;23;20016;-49
2023/03/30 12:48:23;;;;;;;8.43;1.15;;;;;;;;;;6221096;23;20103;-51
2023/03/30 12:50:55;;;;;;;7.45;1.52;;;;;;;;;;6212096;23;20035;-48
2023/03/30 12:53:41;;;;;;;9.80;1.35;;;;;;;;;;6214758;23;20095;-47
2023/03/30 12:56:12;;;;;;;5.60;0.80;;;;;;;;;;6204001;22;20355;-50
2023/03/30 12:58:48;;;;;;;10.95;1.20;;;;;;;;;;6207825;23;20024;-48
2023/03/30 13:01:27;;;;;;;10.23;1.10;;;;;;;;;;6204880;23;20551;-50
2023/03/30 13:03:55;;;;;;;7.38;0.80;;;;;;;;;;6216902;23;20343;-47
2023/03/30 13:06:25;;;;;;;6.30;0.80;;;;;;;;;;6218158;22;20439;-50
2023/03/30 13:08:54;;;;;;;6.30;0.83;;;;;;;;;;6217051;23;20027;-50
2023/03/30 13:11:23;;;;;;;4.95;1.13;;;;;;;;;;6216394;23;20020;-50
2023/03/30 13:13:55;;;;;;;8.52;1.27;;;;;;;;;;6218382;23;20450;-47
2023/03/30 13:16:42;;;;;;;11.68;1.40;;;;;;;;;;6223795;23;20390;-51
2023/03/30 13:19:14;;;;;;;7.20;1.15;;;;;;;;;;6222789;23;20107;-47
2023/03/30 13:21:49;;;;;;;9.70;1.20;;;;;;;;;;6218226;23;20019;-50
2023/03/30 13:24:32;;;;;;;8.65;0.82;;;;;;;;;;6221353;22;20067;-51
2023/03/30 13:27:20;;;;;;;4.28;0.65;;;;;;;;;;6211273;23;20012;-51
2023/03/30 13:29:53;;;;;;;6.88;0.43;;;;;;;;;;6209177;23;20020;-47
2023/03/30 13:32:25;;;;;;;6.93;0.30;;;;;;;;;;6222156;23;20070;-49
2023/03/30 13:35:03;;;;;;;3.97;0.50;;;;;;;;;;6220096;23;20012;-47
2023/03/30 13:37:58;;;;;;;4.75;0.50;;;;;;;;;;6221971;23;20020;-47
2023/03/30 13:40:28;;;;;;;4.32;0.57;;;;;;;;;;6180498;22;20091;-48
2023/03/30 13:43:17;;;;;;;4.13;0.70;;;;;;;;;;6220003;23;20016;-48
2023/03/30 13:45:47;;;;;;;5.88;0.40;;;;;;;;;;6220822;23;20023;-51
2023/03/30 13:48:23;;;;;;;3.10;0.40;;;;;;;;;;6216523;23;20434;-53
2023/03/30 13:50:54;;;;;;;8.57;0.50;;;;;;;;;;6220714;23;20012;-52
2023/03/30 13:53:24;;;;;;;4.65;0.63;;;;;;;;;;6215848;23;20031;-50
2023/03/30 13:55:52;;;;;;;4.25;0.45;;;;;;;;;;6222850;23;20023;-49
2023/03/30 13:58:23;;;;;;;4.03;0.70;;;;;;;;;;6220458;23;20354;-49
2023/03/30 14:00:51;;;;;;;4.07;0.40;;;;;;;;;;6221711;23;20351;-48
2023/03/30 14:03:27;;;;;;;4.97;0.60;;;;;;;;;;6218509;22;20012;-52
2023/03/30 14:06:01;;;;;;;7.25;0.68;;;;;;;;;;6215841;23;20023;-53
2023/03/30 14:08:33;;;;;;;8.38;0.73;;;;;;;;;;6221207;22;20020;-48
2023/03/30 14:11:02;;;;;;;5.47;0.57;;;;;;;;;;6223103;22;20016;-53
2023/03/30 14:13:32;;;;;;;5.80;0.83;;;;;;;;;;6215750;23;20043;-51
2023/03/30 14:16:00;;;;;;;7.03;0.77;;;;;;;;;;6224623;23;20107;-50
2023/03/30 14:18:28;;;;;;;4.10;0.52;;;;;;;;;;6211893;22;20027;-50
2023/03/30 14:20:56;;;;;;;7.63;0.60;;;;;;;;;;6221009;23;20512;-50
2023/03/30 14:23:28;;;;;;;7.15;0.70;;;;;;;;;;6215484;23;20095;-50
2023/03/30 14:25:58;;;;;;;4.80;0.70;;;;;;;;;;6222898;23;20091;-49
2023/03/30 14:28:27;;;;;;;6.22;0.60;;;;;;;;;;6211568;23;20012;-51
2023/03/30 14:30:57;;;;;;;4.88;0.47;;;;;;;;;;6219130;23;20039;-51
2023/03/30 14:33:25;;;;;;;5.43;0.60;;;;;;;;;;6220203;23;20047;-48
2023/03/30 14:35:55;;;;;;;5.70;0.40;;;;;;;;;;6219833;23;20340;-49
2023/03/30 14:38:24;;;;;;;8.90;0.67;;;;;;;;;;6216743;23;20020;-48
2023/03/30 14:40:53;;;;;;;3.80;0.40;;;;;;;;;;6218011;23;20046;-53
2023/03/30 14:43:23;;;;;;;10.80;1.17;;;;;;;;;;6225524;23;20027;-52
2023/03/30 14:45:51;;;;;;;5.38;0.60;;;;;;;;;;6214179;23;20020;-48
2023/03/30 14:48:23;;;;;;;7.35;0.90;;;;;;;;;;6218063;23;20027;-52
2023/03/30 14:50:51;;;;;;;5.37;0.80;;;;;;;;;;6215294;23;20013;-49
2023/03/30 14:53:20;;;;;;;7.55;1.20;;;;;;;;;;6219299;23;20099;-52
2023/03/30 14:55:48;;;;;;;8.20;0.45;;;;;;;;;;6222390;23;20012;-51
2023/03/30 14:58:17;;;;;;;4.50;0.73;;;;;;;;;;6213850;23;20012;-50